createdAt,value
2022-10-20T00:00:46.474Z,3.70
2022-10-20T00:03:13.289Z,3.50
2022-10-20T00:05:40.524Z,3.50
2022-10-20T00:08:07.323Z,3.80
2022-10-20T00:10:35.529Z,3.63
2022-10-20T00:13:02.567Z,3.80
2022-10-20T00:15:29.512Z,3.10
2022-10-20T00:17:56.432Z,3.40
2022-10-20T00:20:23.311Z,3.40
2022-10-20T00:22:50.099Z,3.33
2022-10-20T00:25:17.348Z,3.70
2022-10-20T00:27:45.534Z,3.37
2022-10-20T00:30:12.557Z,3.53
2022-10-20T00:32:39.381Z,3.37
2022-10-20T00:35:06.937Z,3.47
2022-10-20T00:37:33.803Z,3.50
2022-10-20T00:40:00.683Z,3.80
2022-10-20T00:42:29.888Z,3.63
2022-10-20T00:44:59.864Z,3.40
2022-10-20T00:47:37.688Z,3.40
2022-10-20T00:50:09.588Z,3.40
2022-10-20T00:52:37.923Z,3.20
2022-10-20T00:55:07.079Z,3.20
2022-10-20T00:57:34.753Z,3.10
2022-10-20T01:00:04.166Z,3.50
2022-10-20T01:02:31.127Z,3.50
2022-10-20T01:04:58.486Z,3.70
2022-10-20T01:07:25.297Z,3.57
2022-10-20T01:09:52.294Z,3.03
2022-10-20T01:12:28.578Z,3.10
2022-10-20T01:15:02.929Z,3.37
2022-10-20T01:17:45.110Z,3.23
2022-10-20T01:20:27.191Z,3.50
2022-10-20T01:23:31.616Z,3.70
2022-10-20T01:26:37.007Z,3.10
2022-10-20T01:29:13.136Z,4.10
2022-10-20T01:31:45.012Z,3.20
2022-10-20T01:34:18.101Z,3.37
2022-10-20T01:36:50.936Z,4.23
2022-10-20T01:39:25.008Z,3.70
2022-10-20T01:41:57.034Z,2.87
2022-10-20T01:44:27.987Z,3.27
2022-10-20T01:46:56.869Z,3.70
2022-10-20T01:49:24.679Z,3.73
2022-10-20T01:51:51.881Z,4.10
2022-10-20T01:54:22.715Z,3.77
2022-10-20T01:57:02.563Z,3.77
2022-10-20T01:59:47.545Z,3.23
2022-10-20T02:02:44.210Z,3.57
2022-10-20T02:05:23.407Z,3.30
2022-10-20T02:07:51.523Z,4.07
2022-10-20T02:10:24.505Z,3.93
2022-10-20T02:12:57.102Z,3.90
2022-10-20T02:15:27.485Z,4.13
2022-10-20T02:17:59.811Z,3.67
2022-10-20T02:20:28.741Z,3.53
2022-10-20T02:22:57.942Z,3.87
2022-10-20T02:25:25.985Z,3.60
2022-10-20T02:27:54.684Z,3.57
2022-10-20T02:30:21.980Z,3.93
2022-10-20T02:32:52.901Z,4.27
2022-10-20T02:35:22.520Z,3.60
2022-10-20T02:37:49.522Z,3.93
2022-10-20T02:40:16.483Z,3.60
2022-10-20T02:42:43.880Z,4.10
2022-10-20T02:45:11.114Z,4.00
2022-10-20T02:47:38.596Z,4.00
2022-10-20T02:50:08.775Z,4.10
2022-10-20T02:52:36.643Z,3.90
2022-10-20T02:55:04.292Z,3.80
2022-10-20T02:57:31.190Z,4.00
2022-10-20T02:59:57.996Z,4.30
2022-10-20T03:02:24.894Z,3.47
2022-10-20T03:04:54.227Z,3.87
2022-10-20T03:07:22.382Z,3.77
2022-10-20T03:09:49.238Z,3.90
2022-10-20T03:12:16.159Z,4.23
2022-10-20T03:14:43.022Z,3.83
2022-10-20T03:17:09.875Z,4.00
2022-10-20T03:19:36.892Z,3.57
2022-10-20T03:22:03.714Z,3.97
2022-10-20T03:24:31.933Z,3.87
2022-10-20T03:26:58.754Z,4.33
2022-10-20T03:29:25.544Z,4.73
2022-10-20T03:31:52.499Z,4.20
2022-10-20T03:34:19.372Z,3.67
2022-10-20T03:36:46.203Z,4.03
2022-10-20T03:39:13.022Z,4.03
2022-10-20T03:41:41.258Z,3.77
2022-10-20T03:44:09.645Z,3.77
2022-10-20T03:46:36.552Z,3.50
2022-10-20T03:49:04.012Z,3.93
2022-10-20T03:51:30.843Z,3.63
2022-10-20T03:53:57.602Z,4.30
2022-10-20T03:56:24.564Z,4.07
2022-10-20T03:58:52.872Z,3.93
2022-10-20T04:01:24.396Z,4.20
2022-10-20T04:03:51.245Z,4.57
2022-10-20T04:06:18.054Z,4.17
2022-10-20T04:08:44.979Z,4.03
2022-10-20T04:11:12.486Z,3.63
2022-10-20T04:13:39.361Z,4.30
2022-10-20T04:16:08.258Z,3.90
2022-10-20T04:18:35.232Z,4.10
2022-10-20T04:21:04.131Z,3.83
2022-10-20T04:23:31.037Z,4.03
2022-10-20T04:25:57.803Z,4.60
2022-10-20T04:28:24.690Z,4.10
2022-10-20T04:30:51.509Z,4.30
2022-10-20T04:33:19.670Z,4.40
2022-10-20T04:35:46.518Z,4.20
2022-10-20T04:38:13.310Z,4.50
2022-10-20T04:40:40.090Z,3.87
2022-10-20T04:43:06.868Z,3.60
2022-10-20T04:45:33.724Z,4.13
2022-10-20T04:48:00.611Z,4.20
2022-10-20T04:50:28.748Z,4.13
2022-10-20T04:52:55.623Z,3.97
2022-10-20T04:55:22.458Z,4.00
2022-10-20T04:57:49.469Z,4.43
2022-10-20T05:00:16.412Z,4.77
2022-10-20T05:02:43.226Z,4.23
2022-10-20T05:05:10.013Z,4.03
2022-10-20T05:07:38.752Z,4.93
2022-10-20T05:10:06.681Z,4.00
2022-10-20T05:12:33.720Z,4.30
2022-10-20T05:15:00.825Z,4.17
2022-10-20T05:17:29.651Z,4.30
2022-10-20T05:19:56.739Z,4.60
2022-10-20T05:22:23.503Z,4.23
2022-10-20T05:24:51.705Z,4.13
2022-10-20T05:27:18.510Z,4.67
2022-10-20T05:29:45.303Z,4.67
2022-10-20T05:32:12.102Z,5.37
2022-10-20T05:34:39.215Z,4.90
2022-10-20T05:37:06.023Z,4.80
2022-10-20T05:39:32.829Z,5.17
2022-10-20T05:42:01.070Z,4.97
2022-10-20T05:44:27.971Z,4.77
2022-10-20T05:46:55.205Z,5.03
2022-10-20T05:49:23.390Z,5.40
2022-10-20T05:51:50.296Z,4.93
2022-10-20T05:54:17.128Z,5.10
2022-10-20T05:56:44.183Z,5.23
2022-10-20T05:59:12.920Z,4.97
2022-10-20T06:01:48.198Z,4.90
2022-10-20T06:04:16.948Z,5.03
2022-10-20T06:06:44.157Z,5.50
2022-10-20T06:09:11.797Z,4.87
2022-10-20T06:11:39.777Z,5.07
2022-10-20T06:14:07.827Z,4.93
2022-10-20T06:16:36.360Z,5.93
2022-10-20T06:19:03.394Z,4.97
2022-10-20T06:21:32.652Z,5.83
2022-10-20T06:24:00.563Z,5.60
2022-10-20T06:26:36.572Z,5.50
2022-10-20T06:29:05.131Z,6.00
2022-10-20T06:31:33.923Z,5.60
2022-10-20T06:34:04.791Z,6.00
2022-10-20T06:36:34.001Z,5.13
2022-10-20T06:39:01.694Z,5.37
2022-10-20T06:41:28.689Z,5.77
2022-10-20T06:43:59.074Z,5.77
2022-10-20T06:46:27.189Z,6.23
2022-10-20T06:48:57.888Z,6.00
2022-10-20T06:51:27.374Z,6.23
2022-10-20T06:53:54.203Z,6.40
2022-10-20T06:56:23.052Z,6.17
2022-10-20T06:58:52.108Z,5.97
2022-10-20T07:01:20.962Z,6.00
2022-10-20T07:03:48.665Z,6.27
2022-10-20T07:06:17.134Z,5.27
2022-10-20T07:08:46.385Z,6.13
2022-10-20T07:11:15.835Z,6.40
2022-10-20T07:13:43.116Z,5.83
2022-10-20T07:16:13.003Z,6.27
2022-10-20T07:18:40.319Z,5.77
2022-10-20T07:21:09.274Z,6.30
2022-10-20T07:23:36.444Z,6.03
2022-10-20T07:26:06.578Z,6.30
2022-10-20T07:28:34.578Z,6.73
2022-10-20T07:31:03.844Z,7.30
2022-10-20T07:33:30.769Z,7.33
2022-10-20T07:35:57.625Z,7.87
2022-10-20T07:38:24.964Z,7.80
2022-10-20T07:40:51.838Z,7.80
2022-10-20T07:43:20.021Z,7.80
2022-10-20T07:45:46.898Z,8.17
2022-10-20T07:48:13.734Z,8.40
2022-10-20T07:50:40.699Z,7.77
2022-10-20T07:53:07.603Z,8.43
2022-10-20T07:55:39.036Z,9.03
2022-10-20T07:58:06.493Z,9.00
2022-10-20T08:00:34.744Z,9.43
2022-10-20T08:03:01.756Z,8.70
2022-10-20T08:05:29.542Z,9.30
2022-10-20T08:07:58.253Z,12.30
2022-10-20T08:10:25.346Z,11.23
2022-10-20T08:12:52.170Z,9.87
2022-10-20T08:15:21.541Z,8.83
2022-10-20T08:17:50.216Z,8.33
2022-10-20T08:20:26.407Z,9.53
2022-10-20T08:22:54.120Z,9.50
2022-10-20T08:25:20.988Z,9.13
2022-10-20T08:27:47.802Z,10.77
2022-10-20T08:30:29.604Z,9.77
2022-10-20T08:32:57.946Z,9.20
2022-10-20T08:35:24.806Z,9.40
2022-10-20T08:37:51.944Z,9.80
2022-10-20T08:40:22.867Z,9.77
2022-10-20T08:42:49.948Z,13.90
2022-10-20T08:45:20.298Z,14.73
2022-10-20T08:47:49.482Z,11.00
2022-10-20T08:50:19.392Z,11.07
2022-10-20T08:52:50.289Z,11.60
2022-10-20T08:55:24.546Z,10.73
2022-10-20T08:57:51.727Z,11.80
2022-10-20T09:00:20.777Z,11.70
2022-10-20T09:02:49.649Z,11.63
2022-10-20T09:05:23.065Z,11.60
2022-10-20T09:07:50.105Z,11.40
2022-10-20T09:10:30.060Z,11.37
2022-10-20T09:12:57.454Z,11.20
2022-10-20T09:15:26.924Z,10.50
2022-10-20T09:17:56.928Z,11.90
2022-10-20T09:20:30.206Z,12.23
2022-10-20T09:22:57.151Z,11.17
2022-10-20T09:25:27.370Z,11.90
2022-10-20T09:27:56.442Z,11.33
2022-10-20T09:30:33.230Z,11.57
2022-10-20T09:33:00.978Z,11.47
2022-10-20T09:35:32.077Z,11.20
2022-10-20T09:38:17.365Z,11.83
2022-10-20T09:40:45.651Z,11.63
2022-10-20T09:43:17.051Z,11.47
2022-10-20T09:45:52.405Z,11.20
2022-10-20T09:48:23.745Z,12.13
2022-10-20T09:50:57.351Z,12.00
2022-10-20T09:53:27.521Z,12.27
2022-10-20T09:55:55.456Z,11.37
2022-10-20T09:58:26.706Z,11.17
2022-10-20T10:01:00.407Z,11.17
2022-10-20T10:03:27.866Z,11.73
2022-10-20T10:05:57.344Z,11.40
2022-10-20T10:08:26.762Z,11.90
2022-10-20T10:11:04.516Z,11.07
2022-10-20T10:13:38.793Z,11.77
2022-10-20T10:16:08.175Z,11.97
2022-10-20T10:18:36.301Z,11.37
2022-10-20T10:21:07.685Z,10.10
2022-10-20T10:23:36.533Z,11.77
2022-10-20T10:26:24.361Z,11.03
2022-10-20T10:28:58.320Z,11.53
2022-10-20T10:31:26.621Z,11.27
2022-10-20T10:34:02.286Z,12.27
2022-10-20T10:36:33.450Z,11.87
2022-10-20T10:39:00.916Z,11.30
2022-10-20T10:41:47.110Z,12.23
2022-10-20T10:44:24.480Z,10.63
2022-10-20T10:47:01.206Z,11.60
2022-10-20T10:49:55.431Z,11.50
2022-10-20T10:52:36.651Z,11.63
2022-10-20T10:55:30.488Z,11.83
2022-10-20T10:58:15.240Z,11.87
2022-10-20T11:00:52.546Z,11.43
2022-10-20T11:03:47.592Z,11.47
2022-10-20T11:06:25.186Z,11.17
2022-10-20T11:09:09.747Z,10.37
2022-10-20T11:11:50.520Z,11.60
2022-10-20T11:14:30.726Z,10.70
2022-10-20T11:17:13.114Z,11.73
2022-10-20T11:20:00.493Z,12.10
2022-10-20T11:22:37.452Z,12.90
2022-10-20T11:25:16.538Z,11.93
2022-10-20T11:27:43.451Z,11.00
2022-10-20T11:30:19.129Z,12.17
2022-10-20T11:32:52.282Z,10.37
2022-10-20T11:35:29.147Z,12.07
2022-10-20T11:38:03.465Z,11.27
2022-10-20T11:40:39.253Z,11.87
2022-10-20T11:43:15.997Z,11.10
2022-10-20T11:45:49.012Z,12.57
2022-10-20T11:48:21.739Z,11.17
2022-10-20T11:50:57.755Z,11.33
2022-10-20T11:53:42.610Z,12.07
2022-10-20T11:56:30.074Z,11.90
2022-10-20T11:59:21.767Z,11.63
2022-10-20T12:02:15.593Z,11.17
2022-10-20T12:05:07.536Z,12.57
2022-10-20T12:07:51.539Z,12.97
2022-10-20T12:10:35.873Z,12.40
2022-10-20T12:13:20.726Z,13.33
2022-10-20T12:15:49.033Z,12.47
2022-10-20T12:18:23.594Z,12.77
2022-10-20T12:20:53.189Z,12.73
2022-10-20T12:24:02.191Z,12.37
2022-10-20T12:26:42.486Z,12.20
2022-10-20T12:29:48.206Z,13.23
2022-10-20T12:32:53.432Z,12.80
2022-10-20T12:35:29.678Z,12.73
2022-10-20T12:37:58.534Z,12.20
2022-10-20T12:40:29.861Z,10.67
2022-10-20T12:42:57.064Z,12.20
2022-10-20T12:45:37.483Z,11.17
2022-10-20T12:48:05.965Z,11.77
2022-10-20T12:50:36.596Z,11.93
2022-10-20T12:53:18.335Z,10.17
2022-10-20T12:55:53.788Z,11.63
2022-10-20T12:58:31.868Z,11.80
2022-10-20T13:01:10.245Z,12.40
2022-10-20T13:03:44.196Z,11.53
2022-10-20T13:06:40.718Z,11.20
2022-10-20T13:09:24.040Z,11.60
2022-10-20T13:12:04.366Z,11.87
2022-10-20T13:14:46.060Z,28.13
2022-10-20T13:17:23.999Z,13.53
2022-10-20T13:20:01.409Z,12.10
2022-10-20T13:22:38.949Z,10.63
2022-10-20T13:25:14.780Z,11.83
2022-10-20T13:27:41.701Z,11.10
2022-10-20T13:30:10.550Z,12.00
2022-10-20T13:33:02.020Z,11.70
2022-10-20T13:35:42.220Z,11.57
2022-10-20T13:38:18.195Z,11.17
2022-10-20T13:40:55.041Z,11.77
2022-10-20T13:43:30.438Z,11.33
2022-10-20T13:46:27.964Z,12.40
2022-10-20T13:49:13.589Z,11.23
2022-10-20T13:51:44.008Z,11.80
2022-10-20T13:54:21.020Z,11.93
2022-10-20T13:56:49.238Z,11.73
2022-10-20T14:01:52.613Z,12.30
2022-10-20T14:04:29.579Z,11.07
2022-10-20T14:07:01.939Z,11.63
2022-10-20T14:09:28.769Z,11.63
2022-10-20T14:12:00.760Z,11.93
2022-10-20T14:14:29.751Z,11.60
2022-10-20T14:16:59.307Z,12.43
2022-10-20T14:19:28.679Z,11.47
2022-10-20T14:21:57.489Z,10.90
2022-10-20T14:24:29.936Z,12.20
2022-10-20T14:29:28.879Z,12.90
2022-10-20T14:31:56.136Z,12.17
2022-10-20T14:34:25.596Z,12.53
2022-10-20T14:36:54.830Z,13.57
2022-10-20T14:39:32.468Z,13.33
2022-10-20T14:42:01.795Z,14.10
2022-10-20T14:44:31.763Z,13.00
2022-10-20T14:47:05.325Z,12.97
2022-10-20T14:49:37.769Z,13.30
2022-10-20T14:52:21.862Z,13.40
2022-10-20T14:54:50.173Z,13.90
2022-10-20T14:57:41.610Z,14.27
2022-10-20T15:00:33.313Z,14.70
2022-10-20T15:03:03.273Z,13.47
2022-10-20T15:05:36.273Z,14.77
2022-10-20T15:08:20.891Z,16.43
2022-10-20T15:10:48.101Z,16.20
2022-10-20T15:13:26.526Z,15.40
2022-10-20T15:15:55.620Z,14.53
2022-10-20T15:18:24.005Z,15.50
2022-10-20T15:20:52.049Z,15.53
2022-10-20T15:23:21.747Z,16.97
2022-10-20T15:25:52.006Z,15.47
2022-10-20T15:28:38.302Z,15.00
2022-10-20T15:31:08.477Z,14.63
2022-10-20T15:33:35.508Z,16.80
2022-10-20T15:36:02.380Z,15.60
2022-10-20T15:38:31.137Z,16.00
2022-10-20T15:43:32.859Z,15.90
2022-10-20T15:45:59.710Z,16.07
2022-10-20T15:48:26.985Z,15.83
2022-10-20T15:50:54.676Z,15.80
2022-10-20T15:53:21.521Z,17.10
2022-10-20T15:55:49.778Z,17.03
2022-10-20T15:58:16.615Z,15.63
2022-10-20T16:00:43.502Z,15.27
2022-10-20T16:03:15.529Z,15.77
2022-10-20T16:05:42.346Z,17.03
2022-10-20T16:08:09.370Z,16.67
2022-10-20T16:10:36.195Z,17.13
2022-10-20T16:13:04.505Z,17.23
2022-10-20T16:15:31.713Z,16.70
2022-10-20T16:17:58.937Z,16.97
2022-10-20T16:20:25.804Z,18.10
2022-10-20T16:22:52.926Z,16.27
2022-10-20T16:25:19.795Z,16.37
2022-10-20T16:27:46.731Z,17.43
2022-10-20T16:30:16.496Z,17.07
2022-10-20T16:32:43.476Z,17.13
2022-10-20T16:35:10.541Z,17.23
2022-10-20T16:37:37.555Z,17.37
2022-10-20T16:40:05.348Z,16.07
2022-10-20T16:42:32.449Z,15.57
2022-10-20T16:44:59.247Z,15.30
2022-10-20T16:47:27.635Z,16.70
2022-10-20T16:49:54.592Z,15.97
2022-10-20T16:52:21.793Z,16.23
2022-10-20T16:54:48.796Z,16.67
2022-10-20T16:57:15.988Z,17.80
2022-10-20T16:59:45.101Z,17.30
2022-10-20T17:02:12.718Z,17.33
2022-10-20T17:04:42.372Z,17.00
2022-10-20T17:07:09.258Z,16.30
2022-10-20T17:09:36.023Z,16.93
2022-10-20T17:12:03.019Z,17.70
2022-10-20T17:14:29.809Z,16.73
2022-10-20T17:16:56.679Z,17.33
2022-10-20T17:19:23.465Z,17.17
2022-10-20T17:21:55.933Z,16.43
2022-10-20T17:24:24.368Z,16.57
2022-10-20T17:26:51.318Z,16.20
2022-10-20T17:29:22.299Z,16.20
2022-10-20T17:31:52.241Z,17.57
2022-10-20T17:34:19.112Z,18.03
2022-10-20T17:36:45.913Z,17.50
2022-10-20T17:39:16.453Z,15.97
2022-10-20T17:41:43.707Z,17.10
2022-10-20T17:44:10.758Z,16.57
2022-10-20T17:46:38.847Z,17.10
2022-10-20T17:49:06.364Z,15.73
2022-10-20T17:51:34.738Z,17.37
2022-10-20T17:54:02.176Z,16.00
2022-10-20T17:56:32.253Z,17.10
2022-10-20T17:59:00.615Z,18.00
2022-10-20T18:01:29.844Z,17.63
2022-10-20T18:03:58.167Z,17.23
2022-10-20T18:06:29.945Z,17.27
2022-10-20T18:09:01.387Z,16.57
2022-10-20T18:11:32.019Z,16.97
2022-10-20T18:14:00.045Z,17.40
2022-10-20T18:16:28.936Z,16.53
2022-10-20T18:18:59.011Z,17.20
2022-10-20T18:21:26.694Z,17.37
2022-10-20T18:23:54.987Z,17.23
2022-10-20T18:26:22.447Z,17.93
2022-10-20T18:28:51.811Z,18.00
2022-10-20T18:31:22.094Z,16.80
2022-10-20T18:33:50.573Z,17.57
2022-10-20T18:36:18.872Z,17.17
2022-10-20T18:38:47.036Z,17.27
2022-10-20T18:41:16.496Z,16.90
2022-10-20T18:43:45.450Z,17.50
2022-10-20T18:46:14.729Z,17.67
2022-10-20T18:48:42.642Z,18.20
2022-10-20T18:51:11.175Z,18.30
2022-10-20T18:56:14.972Z,19.13
2022-10-20T18:58:46.712Z,18.50
2022-10-20T19:01:16.296Z,18.40
2022-10-20T19:03:46.170Z,18.23
2022-10-20T19:06:15.243Z,17.37
2022-10-20T19:08:42.570Z,18.33
2022-10-20T19:11:11.650Z,17.97
2022-10-20T19:13:39.121Z,18.67
2022-10-20T19:16:08.255Z,18.40
2022-10-20T19:18:36.954Z,17.77
2022-10-20T19:21:06.082Z,20.17
2022-10-20T19:23:35.286Z,19.37
2022-10-20T19:26:04.320Z,17.93
2022-10-20T19:28:32.100Z,18.83
2022-10-20T19:31:00.036Z,18.40
2022-10-20T19:33:27.945Z,19.07
2022-10-20T19:35:56.200Z,18.80
2022-10-20T19:38:23.290Z,18.67
2022-10-20T19:40:50.286Z,17.73
2022-10-20T19:43:17.328Z,18.17
2022-10-20T19:45:47.726Z,18.50
2022-10-20T19:48:16.640Z,16.93
2022-10-20T19:50:43.508Z,16.97
2022-10-20T19:53:12.149Z,18.17
2022-10-20T19:55:39.049Z,18.67
2022-10-20T19:58:05.971Z,18.67
2022-10-20T20:00:32.827Z,18.00
2022-10-20T20:02:59.732Z,17.07
2022-10-20T20:05:26.634Z,16.63
2022-10-20T20:07:53.549Z,17.83
2022-10-20T20:10:21.821Z,17.80
2022-10-20T20:12:48.616Z,17.47
2022-10-20T20:15:15.564Z,18.47
2022-10-20T20:17:42.600Z,16.63
2022-10-20T20:20:09.713Z,15.50
2022-10-20T20:22:36.674Z,17.40
2022-10-20T20:25:03.959Z,16.57
2022-10-20T20:27:32.114Z,17.00
2022-10-20T20:29:59.218Z,17.50
2022-10-20T20:35:11.611Z,17.07
2022-10-20T20:37:38.820Z,17.80
2022-10-20T20:40:07.091Z,17.30
2022-10-20T20:42:35.247Z,16.93
2022-10-20T20:45:02.603Z,17.30
2022-10-20T20:47:30.726Z,16.80
2022-10-20T20:49:57.546Z,17.90
2022-10-20T20:52:25.972Z,16.70
2022-10-20T20:54:53.208Z,17.50
2022-10-20T20:57:20.063Z,17.57
2022-10-20T20:59:48.211Z,17.57
2022-10-20T21:02:15.402Z,20.25
2022-10-20T21:04:42.293Z,18.47
2022-10-20T21:07:09.406Z,17.63
2022-10-20T21:09:36.477Z,16.57
2022-10-20T21:12:04.681Z,15.70
2022-10-20T21:14:31.550Z,16.87
2022-10-20T21:17:00.824Z,15.93
2022-10-20T21:19:27.735Z,16.90
2022-10-20T21:21:58.153Z,17.27
2022-10-20T21:24:26.314Z,17.43
2022-10-20T21:26:53.261Z,17.43
2022-10-20T21:29:20.036Z,17.43
2022-10-20T21:31:47.087Z,18.50
2022-10-20T21:34:15.350Z,18.57
2022-10-20T21:36:42.262Z,18.53
2022-10-20T21:39:12.811Z,17.80
2022-10-20T21:41:39.701Z,17.13
2022-10-20T21:44:08.315Z,17.60
2022-10-20T21:46:36.770Z,17.87
2022-10-20T21:49:06.038Z,18.37
2022-10-20T21:51:35.874Z,16.70
2022-10-20T21:54:04.546Z,17.17
2022-10-20T21:56:33.536Z,16.60
2022-10-20T21:59:00.326Z,16.47
2022-10-20T22:01:27.281Z,16.83
2022-10-20T22:03:54.432Z,17.57
2022-10-20T22:06:23.149Z,17.50
2022-10-20T22:08:52.874Z,17.53
2022-10-20T22:11:22.991Z,17.30
2022-10-20T22:13:49.881Z,18.30
2022-10-20T22:16:19.493Z,17.73
2022-10-20T22:18:46.908Z,17.07
2022-10-20T22:21:16.284Z,17.43
2022-10-20T22:23:44.001Z,15.73
2022-10-20T22:26:12.637Z,17.30
2022-10-20T22:28:39.927Z,15.57
2022-10-20T22:31:07.612Z,16.70
2022-10-20T22:33:34.885Z,17.47
2022-10-20T22:36:01.786Z,16.17
2022-10-20T22:38:28.636Z,16.27
2022-10-20T22:40:58.755Z,16.67
2022-10-20T22:43:27.401Z,16.40
2022-10-20T22:45:54.289Z,15.20
2022-10-20T22:48:21.406Z,17.20
2022-10-20T22:50:48.574Z,17.23
2022-10-20T22:53:15.510Z,15.50
2022-10-20T22:55:42.331Z,16.03
2022-10-20T22:58:09.333Z,15.93
2022-10-20T23:00:38.825Z,17.40
2022-10-20T23:03:05.734Z,15.73
2022-10-20T23:05:33.044Z,16.10
2022-10-20T23:08:00.012Z,15.93
2022-10-20T23:10:26.866Z,16.27
2022-10-20T23:12:53.684Z,16.30
2022-10-20T23:15:20.527Z,16.13
2022-10-20T23:17:48.688Z,16.83
2022-10-20T23:20:15.674Z,16.50
2022-10-20T23:22:42.488Z,16.23
2022-10-20T23:25:09.571Z,16.03
2022-10-20T23:27:36.818Z,16.07
2022-10-20T23:30:04.482Z,17.03
2022-10-20T23:32:31.338Z,16.47
2022-10-20T23:34:59.520Z,16.23
2022-10-20T23:37:26.355Z,15.83
2022-10-20T23:39:53.542Z,15.53
2022-10-20T23:42:20.390Z,15.97
2022-10-20T23:44:47.158Z,16.03
2022-10-20T23:47:13.985Z,16.80
2022-10-20T23:49:40.795Z,16.20
2022-10-20T23:52:08.944Z,16.43
2022-10-20T23:54:35.770Z,16.17
2022-10-20T23:57:02.611Z,16.03
2022-10-20T23:59:29.457Z,16.10
